FDMS/MTS METAR and TAF weather

Enter ICAO airport designator
Station Type Date Time Source
FDMS METAR 2020/11/27 12:00 UTC NOAA

FDMS 271200Z 18004KT 9999 BKN035 OVC040 20/15 Q1023 TEMPO 8000 -RA


Station Type Date Time Source
FDMS Decoded METAR 2020/11/27 12:00 UTC NOAA

Manzini / Matsapa Airport, Swaziland (FDMS) 26-32S 031-18E
Nov 27, 2020 - 07:00 AM EST / 2020.11.27 1200 UTC
Wind: from the S (180 degrees) at 5 MPH (4 KT):0
Visibility: greater than 7 mile(s):0
Sky conditions: overcast
Temperature: 68 F (20 C)
Dew Point: 59 F (15 C)
Relative Humidity: 72%
Pressure (altimeter): 30.21 in. Hg (1023 hPa)
ob: FDMS 271200Z 18004KT 9999 BKN035 OVC040 20/15 Q1023 TEMPO 8000 -RA
cycle: 12

Station Type Date Time Source
FDMS TAF 2020/03/05 06:00 UTC NOAA

TAF TAF FDMS 050400Z 0506/0518 06007KT CAVOK

Example: see airport list